Terminal Aerodrome Forecast
Issued by NWS

Home | Current Version | Previous Version | Text Only | Print | Product List | Glossary On
Versions: 1 2 3 4 5 6 7 8 9 10 11 12 13
000
FTUS43 KDTX 301720
TAFDET
TAF
KDET 301720Z 3018/3118 02010KT 6SM BR VCSH BKN015 OVC045
     FM302000 04010KT P6SM BKN035 BKN050
      TEMPO 3023/3102 4SM TSRA OVC035CB
     FM310200 02004KT P6SM BKN120
     FM310800 VRB04KT 5SM BR SCT025
     FM311200 VRB05KT P6SM SCT030 BKN060=

USA.gov is the U.S. government's official web portal to all federal, state and local government web resources and services.